Time;durP1;ratioP1;P1;durP2;ratioP2;P2;SDS_P1;SDS_P2;PMS_P1;PMS_P2;Temp;Humidity;BMP_temperature;BMP_pressure;BME280_temperature;BME280_humidity;BME280_pressure;Samples;Min_cycle;Max_cycle;Signal;HPM_P1;HPM_P2
2022/07/27 00:01:15;;;;;;;3.37;2.92;;;;;;;14.35;94.19;96405.84;1631694;86;21065;-91
2022/07/27 00:03:41;;;;;;;7.87;2.98;;;;;;;14.35;94.27;96408.45;1679241;84;20978;-88
2022/07/27 00:06:06;;;;;;;8.85;3.22;;;;;;;14.37;94.32;96409.05;1632954;86;21053;-88
2022/07/27 00:08:35;;;;;;;3.40;3.10;;;;;;;14.39;94.28;96413.56;1673405;84;21109;-88
2022/07/27 00:11:00;;;;;;;8.75;3.58;;;;;;;14.39;94.27;96410.14;1673218;84;21057;-88
2022/07/27 00:13:26;;;;;;;6.03;3.05;;;;;;;14.40;94.44;96417.78;1673079;84;20984;-87
2022/07/27 00:15:52;;;;;;;6.28;3.15;;;;;;;14.43;94.46;96416.56;1681483;84;21024;-87
2022/07/27 00:18:18;;;;;;;4.78;3.62;;;;;;;14.42;94.38;96421.49;1681088;84;20958;-88
2022/07/27 00:23:25;;;;;;;6.15;3.77;;;;;;;14.45;94.65;96409.85;1800452;78;23069;-89
2022/07/27 00:25:52;;;;;;;7.70;3.00;;;;;;;14.38;94.54;96411.95;1768505;79;21050;-86
2022/07/27 00:28:18;;;;;;;5.70;2.92;;;;;;;14.35;94.49;96411.56;1775316;79;21034;-89
2022/07/27 00:30:44;;;;;;;6.12;3.02;;;;;;;14.32;94.46;96410.67;1770049;79;21049;-91
2022/07/27 00:33:09;;;;;;;4.67;3.33;;;;;;;14.30;94.29;96411.36;1768842;79;20919;-89
2022/07/27 00:35:35;;;;;;;6.20;2.77;;;;;;;14.26;94.27;96408.36;1774919;79;20897;-88
2022/07/27 00:38:01;;;;;;;4.70;2.90;;;;;;;14.24;94.23;96409.56;1778002;79;20920;-86
2022/07/27 00:40:27;;;;;;;3.85;2.75;;;;;;;14.25;94.34;96414.59;1773805;79;21301;-91
2022/07/27 00:42:52;;;;;;;4.35;2.77;;;;;;;14.25;94.15;96411.17;1777144;79;20978;-91
2022/07/27 00:45:18;;;;;;;7.33;2.60;;;;;;;14.25;93.81;96422.43;1770225;79;20947;-89
2022/07/27 00:47:44;;;;;;;4.62;2.77;;;;;;;14.24;93.85;96426.56;1771508;79;20976;-88
2022/07/27 00:50:09;;;;;;;6.10;2.98;;;;;;;14.23;93.95;96417.91;1776815;79;20907;-93
2022/07/27 00:52:36;;;;;;;3.12;2.42;;;;;;;14.22;93.89;96424.15;1763353;79;20966;-93
2022/07/27 00:55:03;;;;;;;3.30;2.90;;;;;;;14.23;93.99;96422.34;1764707;79;20942;-92
2022/07/27 00:57:29;;;;;;;5.30;2.87;;;;;;;14.22;94.09;96415.00;1778885;79;20979;-90
2022/07/27 00:59:55;;;;;;;4.58;2.98;;;;;;;14.22;93.89;96409.77;1770949;79;21031;-93
2022/07/27 01:02:21;;;;;;;4.12;2.30;;;;;;;14.22;93.69;96413.70;1771348;79;21036;-92
2022/07/27 01:04:46;;;;;;;5.00;2.83;;;;;;;14.21;93.32;96413.91;1734334;81;21382;-89
2022/07/27 01:07:12;;;;;;;8.85;2.60;;;;;;;14.19;93.36;96410.69;1726258;82;21046;-90
2022/07/27 01:09:56;;;;;;;5.20;2.85;;;;;;;14.16;93.14;96409.80;1729702;82;20917;-91
2022/07/27 01:12:24;;;;;;;4.85;2.72;;;;;;;14.12;93.29;96411.98;1712542;82;20962;-86
2022/07/27 01:14:50;;;;;;;5.80;3.05;;;;;;;14.12;93.84;96407.56;1738006;81;20940;-87
2022/07/27 01:17:16;;;;;;;3.90;2.67;;;;;;;14.16;94.04;96411.91;1726259;82;21043;-87
2022/07/27 01:19:42;;;;;;;4.47;2.90;;;;;;;14.21;93.99;96409.48;1719071;82;20962;-86
2022/07/27 01:22:08;;;;;;;4.00;2.50;;;;;;;14.20;93.78;96405.77;1715641;82;21445;-89
2022/07/27 01:24:34;;;;;;;4.90;3.30;;;;;;;14.22;94.00;96404.55;1685347;83;21009;-90
2022/07/27 01:27:00;;;;;;;3.75;2.20;;;;;;;14.23;94.22;96400.92;1699368;84;20987;-92
2022/07/27 01:29:27;;;;;;;4.67;2.47;;;;;;;14.24;94.39;96406.45;1694335;84;21003;-90
2022/07/27 01:31:52;;;;;;;4.25;2.72;;;;;;;14.26;94.46;96403.63;1694952;83;21536;-89
2022/07/27 01:34:18;;;;;;;6.25;2.72;;;;;;;14.26;94.38;96414.08;1695125;83;20960;-93
2022/07/27 01:36:44;;;;;;;3.60;3.30;;;;;;;14.25;94.73;96408.05;1704351;83;20999;-91
2022/07/27 01:39:12;;;;;;;4.50;2.87;;;;;;;14.25;94.82;96406.75;1700600;83;21396;-92
2022/07/27 01:41:38;;;;;;;8.45;3.47;;;;;;;14.25;94.85;96408.05;1701346;83;22316;-92
2022/07/27 01:44:04;;;;;;;4.42;3.30;;;;;;;14.29;94.86;96414.47;1695517;83;21060;-93
2022/07/27 01:46:30;;;;;;;6.65;3.20;;;;;;;14.34;94.98;96413.89;1700462;83;21326;-93
2022/07/27 01:48:55;;;;;;;6.55;3.47;;;;;;;14.37;95.00;96413.47;1695857;84;21072;-89
2022/07/27 01:51:21;;;;;;;5.78;3.58;;;;;;;14.39;95.10;96417.98;1700005;83;21037;-89
2022/07/27 01:53:47;;;;;;;6.05;3.10;;;;;;;14.39;95.01;96413.56;1697469;83;21062;-93
2022/07/27 01:56:13;;;;;;;5.20;3.50;;;;;;;14.42;95.09;96414.95;1691362;83;21417;-91
2022/07/27 01:58:40;;;;;;;4.12;3.17;;;;;;;14.44;95.07;96414.28;1693275;83;21055;-89
2022/07/27 02:01:06;;;;;;;4.00;3.08;;;;;;;14.46;95.09;96414.07;1697911;83;21036;-89
2022/07/27 02:03:32;;;;;;;4.50;2.95;;;;;;;14.46;95.17;96419.30;1692786;82;21015;-87
2022/07/27 02:05:57;;;;;;;6.55;3.45;;;;;;;14.49;95.13;96418.91;1695685;83;20979;-89
2022/07/27 02:08:23;;;;;;;5.85;3.20;;;;;;;14.49;94.99;96414.48;1693899;83;21021;-90
2022/07/27 02:13:33;;;;;;;4.60;2.83;;;;;;;14.49;94.65;96417.61;1703567;83;21088;-88
2022/07/27 02:15:59;;;;;;;5.58;3.20;;;;;;;14.52;94.68;96421.91;1698572;83;21109;-89
2022/07/27 02:18:26;;;;;;;5.08;3.35;;;;;;;14.56;94.64;96424.92;1701724;82;21023;-89
2022/07/27 02:20:51;;;;;;;4.62;3.00;;;;;;;14.56;94.31;96429.64;1696241;83;21075;-87
2022/07/27 02:23:17;;;;;;;4.60;3.20;;;;;;;14.61;94.21;96437.66;1701049;83;21169;-87
2022/07/27 02:25:43;;;;;;;5.55;3.90;;;;;;;14.64;93.89;96452.13;1679898;83;20972;-87
2022/07/27 02:28:09;;;;;;;8.98;4.65;;;;;;;14.62;93.60;96445.00;1707620;83;21068;-89
2022/07/27 02:30:34;;;;;;;6.87;4.28;;;;;;;14.59;93.57;96453.27;1709635;83;21000;-88
2022/07/27 02:33:00;;;;;;;6.08;3.98;;;;;;;14.59;93.54;96449.34;1701993;83;20933;-88
2022/07/27 02:35:26;;;;;;;5.05;2.90;;;;;;;14.56;93.49;96452.38;1708233;83;20990;-88
2022/07/27 02:37:52;;;;;;;3.98;3.35;;;;;;;14.55;93.60;96454.19;1707622;83;20948;-89
2022/07/27 02:40:17;;;;;;;3.58;3.27;;;;;;;14.56;93.68;96458.91;1704961;83;21481;-90
2022/07/27 02:42:46;;;;;;;4.55;2.77;;;;;;;14.57;93.72;96461.31;1710893;83;21066;-86
2022/07/27 02:45:14;;;;;;;4.30;2.90;;;;;;;14.62;93.63;96462.00;1707050;83;21009;-86
2022/07/27 02:47:40;;;;;;;4.80;3.10;;;;;;;14.62;93.54;96468.03;1710329;83;20972;-87
2022/07/27 02:50:07;;;;;;;6.47;3.60;;;;;;;14.65;93.40;96466.84;1706516;83;20955;-90
2022/07/27 02:52:32;;;;;;;5.03;3.33;;;;;;;14.68;93.36;96473.77;1705967;83;21422;-87
2022/07/27 02:54:58;;;;;;;5.95;4.03;;;;;;;14.71;93.19;96467.32;1709300;83;21032;-88
2022/07/27 02:57:24;;;;;;;5.05;4.00;;;;;;;14.71;93.17;96464.70;1700455;83;21076;-90
2022/07/27 02:59:50;;;;;;;4.62;4.03;;;;;;;14.72;92.93;96465.00;1711435;83;21017;-87
2022/07/27 03:02:15;;;;;;;4.05;3.42;;;;;;;14.70;92.98;96465.22;1707358;83;21033;-89
2022/07/27 03:04:41;;;;;;;5.42;3.98;;;;;;;14.67;93.07;96465.63;1708240;83;20987;-91
2022/07/27 03:07:08;;;;;;;3.50;3.20;;;;;;;14.65;92.98;96466.84;1714033;83;21050;-91
2022/07/27 03:09:34;;;;;;;5.40;3.67;;;;;;;14.63;92.86;96458.38;1706830;83;21038;-91
2022/07/27 03:12:01;;;;;;;6.50;4.00;;;;;;;14.62;92.90;96456.27;1709891;83;21036;-88
2022/07/27 03:14:27;;;;;;;5.67;3.65;;;;;;;14.63;92.85;96462.30;1710512;83;21375;-90
2022/07/27 03:16:52;;;;;;;4.35;3.95;;;;;;;14.64;92.81;96474.36;1708898;83;21148;-90
2022/07/27 03:19:18;;;;;;;6.53;4.28;;;;;;;14.70;92.51;96487.95;1709809;83;20955;-91
2022/07/27 03:21:44;;;;;;;4.35;3.60;;;;;;;14.74;92.58;96484.41;1708613;83;20983;-92
2022/07/27 03:24:10;;;;;;;5.28;4.25;;;;;;;14.76;92.40;96485.01;1713410;82;21094;-90
2022/07/27 03:26:36;;;;;;;4.67;3.42;;;;;;;14.74;92.28;96482.60;1713704;82;20982;-90
2022/07/27 03:29:02;;;;;;;4.42;3.58;;;;;;;14.75;92.30;96488.63;1713986;82;21025;-90
2022/07/27 03:31:28;;;;;;;7.87;4.15;;;;;;;14.74;92.22;96485.72;1711729;82;20963;-90
2022/07/27 03:33:53;;;;;;;7.60;4.00;;;;;;;14.73;92.15;96482.30;1715428;82;21027;-91
2022/07/27 03:36:19;;;;;;;6.58;4.60;;;;;;;14.73;92.11;96495.37;1715138;82;20984;-88
2022/07/27 03:38:45;;;;;;;4.70;4.30;;;;;;;14.74;92.00;96488.34;1719040;82;21021;-88
2022/07/27 03:41:10;;;;;;;4.72;4.28;;;;;;;14.77;91.91;96490.53;1715838;82;21478;-92
2022/07/27 03:43:36;;;;;;;5.67;5.17;;;;;;;14.78;92.08;96495.56;1710538;82;21010;-87
2022/07/27 03:46:02;;;;;;;6.35;4.92;;;;;;;14.77;92.33;96487.41;1713721;82;20998;-88
2022/07/27 03:48:28;;;;;;;4.95;4.20;;;;;;;14.78;92.56;96477.25;1713916;82;21029;-88
2022/07/27 03:50:54;;;;;;;6.40;4.78;;;;;;;14.77;92.69;96477.45;1715487;82;21140;-90
2022/07/27 03:53:20;;;;;;;7.30;5.42;;;;;;;14.80;92.78;96490.92;1716364;82;21092;-91
2022/07/27 03:55:49;;;;;;;7.95;5.62;;;;;;;14.85;92.42;96490.33;1713966;82;21349;-88
2022/07/27 03:58:16;;;;;;;7.55;5.97;;;;;;;14.91;92.49;96488.19;1711961;82;21380;-92
2022/07/27 04:00:44;;;;;;;8.43;5.97;;;;;;;14.99;92.38;96483.55;1713048;82;20987;-88
2022/07/27 04:03:10;;;;;;;6.85;5.97;;;;;;;15.06;92.77;96477.47;1721177;82;21407;-88
2022/07/27 04:05:35;;;;;;;8.05;5.53;;;;;;;15.15;92.92;96484.90;1750057;81;20940;-87
2022/07/27 04:08:01;;;;;;;7.85;5.45;;;;;;;15.21;92.76;96476.20;1742670;81;21007;-88
2022/07/27 04:10:27;;;;;;;6.28;5.12;;;;;;;15.27;92.54;96473.25;1735955;81;20972;-91
2022/07/27 04:12:53;;;;;;;7.22;4.20;;;;;;;15.31;92.42;96465.30;1742061;81;21366;-89
2022/07/27 04:15:20;;;;;;;5.53;4.65;;;;;;;15.36;92.38;96471.20;1738190;81;20924;-88
2022/07/27 04:17:46;;;;;;;7.97;5.87;;;;;;;15.39;92.24;96468.16;1731976;81;21062;-90
2022/07/27 04:20:13;;;;;;;7.65;5.45;;;;;;;15.38;92.08;96466.05;1734936;81;21016;-90
2022/07/27 04:22:38;;;;;;;6.45;5.40;;;;;;;15.39;92.13;96465.04;1731172;81;21135;-91
2022/07/27 04:25:05;;;;;;;8.43;5.30;;;;;;;15.39;92.18;96464.23;1709533;83;21605;-90
2022/07/27 04:27:31;;;;;;;10.00;4.75;;;;;;;15.39;92.21;96459.80;1755772;80;21001;-87
2022/07/27 04:29:57;;;;;;;7.05;5.55;;;;;;;15.40;92.33;96464.53;1762041;80;21304;-88
2022/07/27 04:32:22;;;;;;;8.03;6.25;;;;;;;15.41;92.22;96469.55;1759324;80;21000;-88
2022/07/27 04:34:48;;;;;;;8.10;5.72;;;;;;;15.44;92.23;96470.95;1769758;80;20989;-87
2022/07/27 04:37:14;;;;;;;9.10;5.85;;;;;;;15.46;92.04;96478.11;1766084;80;20986;-90
2022/07/27 04:39:40;;;;;;;6.67;4.87;;;;;;;15.47;92.05;96477.09;1760301;80;20977;-90
2022/07/27 04:42:06;;;;;;;6.70;5.28;;;;;;;15.46;92.05;96476.30;1762413;80;21043;-90
2022/07/27 04:44:32;;;;;;;6.50;5.83;;;;;;;15.50;92.21;96476.67;1761870;80;21058;-90
2022/07/27 04:46:58;;;;;;;9.98;5.37;;;;;;;15.55;92.17;96479.45;1758948;80;21015;-90
2022/07/27 04:49:24;;;;;;;5.90;5.12;;;;;;;15.60;92.31;96473.91;1760093;80;20952;-90
2022/07/27 04:51:49;;;;;;;10.58;6.10;;;;;;;15.64;92.37;96472.20;1740053;80;21531;-88
2022/07/27 04:54:15;;;;;;;7.97;6.47;;;;;;;15.65;92.26;96477.22;1761846;80;21034;-89
2022/07/27 04:56:41;;;;;;;8.25;6.25;;;;;;;15.70;92.44;96480.52;1764944;80;21034;-89
2022/07/27 04:59:07;;;;;;;7.80;5.70;;;;;;;15.74;92.21;96489.04;1759372;80;20934;-89
2022/07/27 05:01:32;;;;;;;7.92;6.12;;;;;;;15.79;92.14;96494.98;1759352;80;20999;-89
2022/07/27 05:03:58;;;;;;;11.20;8.00;;;;;;;15.85;92.22;96499.36;1757421;80;20995;-89
2022/07/27 05:06:24;;;;;;;8.18;6.78;;;;;;;15.90;91.77;96498.20;1761770;80;21037;-89
2022/07/27 05:08:51;;;;;;;11.55;9.40;;;;;;;15.97;91.85;96496.36;1764868;80;21032;-89
2022/07/27 05:11:17;;;;;;;10.82;9.10;;;;;;;16.03;91.12;96489.45;1764188;80;21331;-89
2022/07/27 05:13:43;;;;;;;10.15;9.10;;;;;;;16.06;91.35;96495.07;1763348;80;20999;-92
2022/07/27 05:16:09;;;;;;;10.15;8.55;;;;;;;16.08;91.19;96503.52;1764000;80;20972;-91
2022/07/27 05:18:36;;;;;;;14.45;9.40;;;;;;;16.14;91.07;96508.44;1741513;80;20981;-91
2022/07/27 05:21:03;;;;;;;12.15;9.15;;;;;;;16.17;90.66;96502.25;1760175;80;21418;-87
2022/07/27 05:23:30;;;;;;;11.73;9.33;;;;;;;16.21;90.17;96498.18;1732377;79;20984;-88
2022/07/27 05:25:57;;;;;;;12.00;8.63;;;;;;;16.25;90.05;96498.55;1761300;79;21026;-88
2022/07/27 05:28:22;;;;;;;11.05;9.23;;;;;;;16.25;89.78;96495.13;1763526;79;20947;-93
2022/07/27 05:30:48;;;;;;;11.15;9.15;;;;;;;16.24;89.56;96500.08;1763482;79;20980;-90
2022/07/27 05:33:14;;;;;;;10.10;9.15;;;;;;;16.26;89.88;96504.09;1768005;79;20949;-90
2022/07/27 05:35:40;;;;;;;12.10;10.15;;;;;;;16.29;89.93;96496.33;1773032;79;21407;-91
2022/07/27 05:38:06;;;;;;;10.85;9.70;;;;;;;16.30;90.10;96491.38;1768130;79;21058;-90
2022/07/27 05:40:32;;;;;;;11.75;9.85;;;;;;;16.33;90.18;96504.85;1764693;79;21066;-90
2022/07/27 05:42:57;;;;;;;10.40;9.10;;;;;;;16.36;90.31;96507.55;1773152;79;21040;-90
2022/07/27 05:45:23;;;;;;;11.70;10.18;;;;;;;16.39;90.02;96503.98;1767657;79;20991;-90
2022/07/27 05:47:49;;;;;;;10.23;9.15;;;;;;;16.38;89.19;96504.20;1766840;79;20971;-91
2022/07/27 05:50:15;;;;;;;12.70;10.48;;;;;;;16.37;89.27;96507.84;1767388;79;20986;-91
2022/07/27 05:52:42;;;;;;;12.25;9.65;;;;;;;16.41;89.70;96509.01;1781035;79;20995;-92
2022/07/27 05:55:08;;;;;;;14.15;9.88;;;;;;;16.45;89.88;96508.38;1720259;82;21379;-90
2022/07/27 05:57:34;;;;;;;15.70;10.20;;;;;;;16.47;89.82;96509.48;1763893;79;20985;-90
2022/07/27 06:00:01;;;;;;;11.90;10.72;;;;;;;16.47;89.62;96514.22;1770373;79;21039;-90
2022/07/27 06:02:29;;;;;;;15.20;10.58;;;;;;;16.50;89.46;96511.66;1778121;79;20983;-90
2022/07/27 06:04:54;;;;;;;13.20;10.08;;;;;;;16.55;89.20;96514.44;1773824;79;21003;-89
2022/07/27 06:10:06;;;;;;;12.10;9.93;;;;;;;16.64;89.53;96523.65;1769269;79;21103;-89
2022/07/27 06:12:39;;;;;;;12.60;10.35;;;;;;;16.72;89.90;96525.20;1764641;79;21367;-89
2022/07/27 06:15:06;;;;;;;13.05;10.60;;;;;;;16.79;90.31;96525.45;1774736;79;21015;-92
2022/07/27 06:17:32;;;;;;;12.00;9.80;;;;;;;16.92;90.66;96539.44;1769380;79;21306;-88
2022/07/27 06:20:01;;;;;;;15.20;10.23;;;;;;;17.05;91.19;96537.48;1766666;79;20963;-92
2022/07/27 06:22:26;;;;;;;13.08;10.23;;;;;;;17.12;90.23;96547.13;1768307;79;21007;-89
2022/07/27 06:24:53;;;;;;;15.68;11.00;;;;;;;17.13;89.77;96541.66;1763258;80;21086;-89
2022/07/27 06:27:19;;;;;;;13.18;11.12;;;;;;;17.17;89.34;96544.12;1774719;80;20979;-86
2022/07/27 06:29:45;;;;;;;14.68;12.05;;;;;;;17.19;88.87;96542.59;1760190;80;21008;-86
2022/07/27 06:32:11;;;;;;;14.35;12.13;;;;;;;17.26;89.02;96538.09;1763724;80;21411;-86
2022/07/27 06:34:36;;;;;;;15.98;13.10;;;;;;;17.35;88.99;96541.49;1778785;80;20939;-87
2022/07/27 06:37:03;;;;;;;12.82;11.53;;;;;;;17.45;89.17;96530.99;1757678;80;21043;-84
2022/07/27 06:39:28;;;;;;;13.78;11.48;;;;;;;17.49;87.98;96523.75;1766937;80;20993;-87
2022/07/27 06:41:55;;;;;;;13.22;11.80;;;;;;;17.55;87.84;96526.00;1766916;80;20985;-88
2022/07/27 06:44:20;;;;;;;15.53;12.50;;;;;;;17.57;87.41;96522.15;1768260;80;20951;-90
2022/07/27 06:46:46;;;;;;;12.93;11.68;;;;;;;17.65;87.64;96531.02;1770918;80;21090;-89
2022/07/27 06:49:12;;;;;;;14.70;13.18;;;;;;;17.75;88.18;96540.24;1755909;80;21047;-89
2022/07/27 06:51:38;;;;;;;14.58;13.25;;;;;;;17.87;87.77;96539.23;1766670;80;21079;-86
2022/07/27 06:54:04;;;;;;;14.65;13.35;;;;;;;17.94;86.46;96538.65;1770352;80;21405;-87
2022/07/27 06:56:30;;;;;;;15.93;14.45;;;;;;;18.04;85.76;96541.23;1762389;80;20959;-89
2022/07/27 06:58:56;;;;;;;18.23;16.42;;;;;;;18.16;86.60;96544.19;1768471;80;21052;-90
2022/07/27 07:01:21;;;;;;;15.90;14.25;;;;;;;18.28;86.27;96544.22;1760834;80;21383;-88
2022/07/27 07:03:47;;;;;;;17.57;15.93;;;;;;;18.29;86.29;96549.25;1767886;80;20935;-87
2022/07/27 07:06:13;;;;;;;20.02;18.23;;;;;;;18.32;86.13;96546.67;1764571;80;21078;-84
2022/07/27 07:08:39;;;;;;;19.73;17.90;;;;;;;18.30;84.26;96546.11;1727396;80;21319;-87
2022/07/27 07:11:04;;;;;;;19.02;17.17;;;;;;;18.30;84.68;96548.22;1764478;80;21010;-87
2022/07/27 07:13:30;;;;;;;19.10;17.10;;;;;;;18.30;84.87;96553.48;1764880;80;20995;-88
2022/07/27 07:15:56;;;;;;;19.02;17.17;;;;;;;18.33;84.51;96553.54;1770627;80;21052;-87
2022/07/27 07:18:22;;;;;;;16.60;15.00;;;;;;;18.33;84.82;96541.70;1764855;80;21425;-91
2022/07/27 07:20:47;;;;;;;16.40;14.80;;;;;;;18.48;85.36;96547.33;1766182;80;20976;-89
2022/07/27 07:23:14;;;;;;;17.12;15.43;;;;;;;18.56;85.14;96544.38;1758796;80;21137;-92
2022/07/27 07:25:43;;;;;;;17.05;15.45;;;;;;;18.60;84.95;96548.15;1766473;80;21344;-88
2022/07/27 07:28:08;;;;;;;17.30;15.60;;;;;;;18.64;84.00;96545.09;1769595;80;21020;-91
2022/07/27 07:30:34;;;;;;;19.12;17.12;;;;;;;18.66;83.41;96543.83;1765611;80;21018;-89
2022/07/27 07:33:00;;;;;;;17.92;16.12;;;;;;;18.68;83.33;96541.77;1764170;80;20908;-88
2022/07/27 07:35:26;;;;;;;18.37;16.57;;;;;;;18.72;83.80;96544.25;1739546;80;21015;-88
2022/07/27 07:37:52;;;;;;;17.05;15.23;;;;;;;18.81;83.89;96546.80;1765106;80;20989;-85
2022/07/27 07:40:18;;;;;;;16.25;14.85;;;;;;;18.91;83.87;96548.08;1767936;80;20962;-85
2022/07/27 07:42:54;;;;;;;16.67;15.03;;;;;;;18.98;83.58;96550.06;1763327;80;20955;-86
2022/07/27 07:45:21;;;;;;;17.07;15.28;;;;;;;18.98;81.94;96552.17;1755853;80;20972;-86
2022/07/27 07:47:47;;;;;;;22.02;16.23;;;;;;;19.01;82.15;96564.08;1764576;80;21347;-88
2022/07/27 07:50:12;;;;;;;17.65;15.68;;;;;;;19.06;82.60;96558.42;1774411;80;20904;-87
2022/07/27 07:52:38;;;;;;;15.95;14.35;;;;;;;19.17;83.35;96564.69;1762303;80;21006;-85
2022/07/27 07:55:05;;;;;;;15.95;14.38;;;;;;;19.24;82.09;96564.59;1760509;80;21469;-86
2022/07/27 07:57:31;;;;;;;14.55;12.68;;;;;;;19.28;81.40;96563.08;1774798;80;21062;-85
2022/07/27 07:59:56;;;;;;;14.70;13.30;;;;;;;19.38;81.15;96561.47;1763606;80;21082;-87
2022/07/27 08:02:22;;;;;;;15.90;14.30;;;;;;;19.51;81.38;96559.06;1765758;80;21074;-87
2022/07/27 08:04:48;;;;;;;14.43;12.93;;;;;;;19.61;80.71;96562.45;1764219;80;21355;-86
2022/07/27 08:07:14;;;;;;;15.88;14.38;;;;;;;19.60;80.71;96561.66;1762874;80;20940;-88
2022/07/27 08:09:39;;;;;;;14.45;13.15;;;;;;;19.52;80.41;96555.39;1767449;80;21073;-88
2022/07/27 08:12:05;;;;;;;15.05;13.65;;;;;;;19.52;80.41;96555.39;1764739;80;21047;-86
2022/07/27 08:14:32;;;;;;;14.28;12.90;;;;;;;19.60;80.24;96557.70;1771249;80;20947;-86
2022/07/27 08:16:58;;;;;;;14.50;13.00;;;;;;;19.71;80.45;96548.97;1766230;80;21032;-88
2022/07/27 08:19:23;;;;;;;13.58;12.30;;;;;;;19.86;79.43;96551.61;1765294;80;21010;-85
2022/07/27 08:21:49;;;;;;;13.85;12.45;;;;;;;20.01;79.57;96551.37;1776084;80;20988;-87
2022/07/27 08:24:15;;;;;;;14.38;13.08;;;;;;;20.16;78.48;96555.28;1763252;80;21056;-87
2022/07/27 08:26:41;;;;;;;15.32;13.85;;;;;;;20.16;77.33;96556.08;1765256;80;21087;-87
2022/07/27 08:29:07;;;;;;;17.65;14.18;;;;;;;20.18;77.52;96559.83;1773076;80;20967;-87
2022/07/27 08:31:32;;;;;;;15.13;13.55;;;;;;;20.18;77.65;96559.83;1762852;80;21007;-87
2022/07/27 08:33:59;;;;;;;15.78;14.20;;;;;;;20.30;77.43;96556.58;1775382;80;21071;-88
2022/07/27 08:36:25;;;;;;;14.13;12.93;;;;;;;20.38;77.96;96564.12;1768647;80;20997;-87
2022/07/27 08:38:51;;;;;;;14.38;12.98;;;;;;;20.37;77.01;96549.33;1769717;80;21086;-86
2022/07/27 08:41:17;;;;;;;14.20;12.78;;;;;;;20.50;75.84;96575.44;1768236;80;20956;-87
2022/07/27 08:43:44;;;;;;;15.68;14.07;;;;;;;20.34;76.80;96569.08;1768026;80;21051;-86
2022/07/27 08:46:10;;;;;;;13.43;11.65;;;;;;;20.23;76.64;96572.58;1765511;80;21409;-87
2022/07/27 08:48:38;;;;;;;15.00;13.60;;;;;;;20.13;77.34;96567.62;1767648;80;21354;-87
2022/07/27 08:51:06;;;;;;;13.28;12.07;;;;;;;20.18;76.22;96570.38;1767491;80;21015;-87
2022/07/27 08:53:32;;;;;;;12.37;11.28;;;;;;;20.42;76.76;96563.14;1763576;80;21080;-87
2022/07/27 08:55:58;;;;;;;14.65;12.90;;;;;;;20.65;76.55;96561.66;1760576;80;21039;-87
2022/07/27 08:58:23;;;;;;;14.13;12.70;;;;;;;20.94;76.45;96566.31;1749431;80;20954;-87
2022/07/27 09:00:49;;;;;;;13.55;12.25;;;;;;;21.07;74.15;96569.14;1747782;80;21032;-87
2022/07/27 09:03:16;;;;;;;12.25;11.00;;;;;;;21.06;72.98;96560.42;1747050;80;21443;-86
2022/07/27 09:05:44;;;;;;;12.20;10.93;;;;;;;21.05;72.88;96561.47;1744507;80;21039;-87
2022/07/27 09:08:24;;;;;;;10.48;9.48;;;;;;;21.02;73.09;96547.95;1745476;81;21347;-86
2022/07/27 09:10:53;;;;;;;10.78;9.83;;;;;;;21.00;75.18;96551.36;1744909;81;20968;-87
2022/07/27 09:13:25;;;;;;;9.95;9.05;;;;;;;20.99;74.33;96549.24;1745475;81;20964;-86
2022/07/27 09:15:54;;;;;;;11.03;9.85;;;;;;;21.00;75.28;96540.27;1752974;80;20928;-86
2022/07/27 09:18:24;;;;;;;12.70;11.53;;;;;;;20.94;72.87;96548.63;1749486;80;21058;-88
2022/07/27 09:21:14;;;;;;;11.57;10.48;;;;;;;20.74;72.30;96545.70;1746853;80;21106;-87
2022/07/27 09:23:45;;;;;;;11.43;9.55;;;;;;;20.70;72.24;96543.80;1744038;81;21071;-86
2022/07/27 09:26:21;;;;;;;13.23;10.37;;;;;;;20.85;74.27;96543.50;1738383;81;21386;-86
2022/07/27 09:29:12;;;;;;;8.80;8.10;;;;;;;20.83;71.72;96542.95;1739636;81;21001;-86
2022/07/27 09:31:50;;;;;;;9.43;8.33;;;;;;;20.96;73.89;96543.09;1729488;81;21061;-87
2022/07/27 09:34:28;;;;;;;10.32;8.80;;;;;;;21.15;73.97;96540.48;1731086;81;21248;-86
2022/07/27 09:36:56;;;;;;;9.75;8.73;;;;;;;21.27;73.34;96531.13;1728458;81;20970;-85
2022/07/27 09:39:23;;;;;;;9.73;8.73;;;;;;;21.41;72.30;96534.20;1735576;81;21046;-86
2022/07/27 09:42:01;;;;;;;8.15;7.30;;;;;;;21.53;70.71;96537.00;1744371;81;20984;-85
2022/07/27 09:44:41;;;;;;;10.55;8.55;;;;;;;21.57;71.67;96527.52;1734474;81;21039;-85
2022/07/27 09:47:29;;;;;;;8.95;8.15;;;;;;;21.61;71.97;96528.34;1737353;81;21406;-87
2022/07/27 09:50:19;;;;;;;10.72;9.43;;;;;;;21.71;71.21;96527.94;1733419;81;20970;-85
2022/07/27 09:52:45;;;;;;;9.25;8.35;;;;;;;21.81;71.08;96522.77;1738800;81;20974;-88
2022/07/27 09:55:10;;;;;;;8.65;7.83;;;;;;;21.97;71.87;96524.24;1732087;81;20999;-86
2022/07/27 09:57:56;;;;;;;7.87;7.17;;;;;;;22.13;70.61;96523.37;1727085;81;21595;-86
2022/07/27 10:00:23;;;;;;;10.20;9.20;;;;;;;22.30;71.34;96521.92;1729639;81;21348;-85
2022/07/27 10:02:49;;;;;;;8.08;7.28;;;;;;;22.22;67.91;96527.66;1734826;81;20975;-86
2022/07/27 10:05:21;;;;;;;10.10;9.15;;;;;;;22.26;68.70;96527.42;1716741;81;21047;-88
2022/07/27 10:07:47;;;;;;;9.00;8.10;;;;;;;22.26;68.04;96529.55;1742848;81;20996;-86
2022/07/27 10:10:13;;;;;;;10.55;9.60;;;;;;;22.35;69.66;96530.69;1750813;81;21003;-87
2022/07/27 10:12:42;;;;;;;10.82;9.83;;;;;;;22.23;66.83;96534.55;1742482;81;21067;-85
2022/07/27 10:15:09;;;;;;;10.53;9.58;;;;;;;22.07;67.84;96528.31;1736974;81;21029;-85
2022/07/27 10:17:34;;;;;;;9.65;8.80;;;;;;;22.20;67.48;96532.41;1739325;81;21335;-85
2022/07/27 10:20:04;;;;;;;10.63;9.58;;;;;;;22.35;67.67;96534.66;1735903;81;22046;-87
2022/07/27 10:22:52;;;;;;;9.50;8.35;;;;;;;22.46;67.58;96534.23;1694559;82;21112;-85
2022/07/27 10:25:19;;;;;;;10.82;9.63;;;;;;;22.37;67.98;96538.38;1680634;83;21981;-86
2022/07/27 10:27:49;;;;;;;11.03;9.73;;;;;;;22.19;68.77;96546.17;1741808;81;21002;-85
2022/07/27 10:30:16;;;;;;;11.00;9.33;;;;;;;22.06;68.00;96538.11;1693632;83;21038;-85
2022/07/27 10:32:43;;;;;;;9.98;9.08;;;;;;;22.00;67.63;96544.91;1743212;81;21029;-86
2022/07/27 10:35:30;;;;;;;9.95;9.05;;;;;;;21.97;67.67;96542.23;1740500;81;20971;-87
2022/07/27 10:38:14;;;;;;;8.35;7.67;;;;;;;21.96;68.19;96539.28;1734843;81;20950;-85
2022/07/27 10:40:40;;;;;;;11.30;10.20;;;;;;;22.01;70.22;96538.03;1743071;81;21003;-86
2022/07/27 10:43:20;;;;;;;11.30;10.40;;;;;;;22.08;67.72;96543.94;1746632;81;21101;-85
2022/07/27 10:45:48;;;;;;;11.83;10.78;;;;;;;22.02;67.24;96534.34;1735728;81;21014;-85
2022/07/27 10:48:39;;;;;;;9.80;8.75;;;;;;;22.18;67.54;96533.19;1721180;81;21048;-87
2022/07/27 10:51:06;;;;;;;10.25;9.38;;;;;;;22.34;69.37;96534.92;1735246;81;20965;-86
2022/07/27 10:53:47;;;;;;;11.12;10.13;;;;;;;22.48;66.21;96534.77;1739507;81;20970;-88
2022/07/27 10:56:09;;;;;;;10.72;9.68;;;;;;;22.52;66.88;96534.53;1730297;81;21080;-87
2022/07/27 10:58:41;;;;;;;11.28;10.23;;;;;;;22.67;68.05;96546.56;1739408;81;21399;-88
2022/07/27 11:01:07;;;;;;;11.63;10.40;;;;;;;22.78;66.80;96544.79;1743134;81;20968;-86
2022/07/27 11:03:36;;;;;;;9.58;8.60;;;;;;;22.88;66.76;96542.22;1739641;81;20991;-86
2022/07/27 11:06:20;;;;;;;10.03;9.13;;;;;;;22.99;66.92;96540.44;1734757;81;20995;-87
2022/07/27 11:08:47;;;;;;;10.58;9.68;;;;;;;22.97;66.04;96545.20;1737600;81;21004;-86
2022/07/27 11:11:20;;;;;;;10.50;9.50;;;;;;;22.95;67.40;96531.41;1743808;81;21385;-87
2022/07/27 11:13:48;;;;;;;9.80;8.90;;;;;;;22.89;65.99;96528.44;1743037;81;21035;-86
2022/07/27 11:16:17;;;;;;;9.85;8.95;;;;;;;22.83;66.24;96528.95;1737796;81;20966;-90
2022/07/27 11:18:45;;;;;;;10.95;9.85;;;;;;;22.86;66.27;96527.11;1737268;81;21417;-89
2022/07/27 11:21:29;;;;;;;10.43;9.53;;;;;;;22.87;65.71;96530.03;1723815;81;21031;-89
2022/07/27 11:24:02;;;;;;;9.70;8.80;;;;;;;22.83;65.25;96522.33;1742884;80;20995;-86
2022/07/27 11:26:30;;;;;;;8.88;8.08;;;;;;;22.85;66.90;96523.39;1723187;82;20983;-88
2022/07/27 11:28:57;;;;;;;10.58;9.55;;;;;;;22.88;66.60;96525.52;1710444;82;21055;-87
2022/07/27 11:31:23;;;;;;;9.98;9.08;;;;;;;22.83;64.97;96515.70;1717413;82;21040;-91
2022/07/27 11:33:52;;;;;;;11.08;9.98;;;;;;;22.76;64.42;96522.50;1725109;82;21012;-92
2022/07/27 11:36:19;;;;;;;10.85;9.88;;;;;;;22.76;64.84;96524.35;1721091;82;21055;-90